Time;durP1;ratioP1;P1;durP2;ratioP2;P2;SDS_P1;SDS_P2;PMS_P1;PMS_P2;Temp;Humidity;BMP_temperature;BMP_pressure;BME280_temperature;BME280_humidity;BME280_pressure;Samples;Min_cycle;Max_cycle;Signal;HPM_P1;HPM_P2
2021/12/29 00:01:38;;;;;;;11.88;7.28;;;;;;;-143.35;100.00;58682.94;4974758;28;20386;-50
2021/12/29 00:04:04;;;;;;;16.67;7.47;;;;;;;-143.35;100.00;58682.94;4974525;28;20034;-49
2021/12/29 00:06:29;;;;;;;13.02;6.95;;;;;;;-143.35;100.00;58682.94;4974865;28;20070;-49
2021/12/29 00:08:55;;;;;;;16.08;6.90;;;;;;;-143.35;100.00;58682.94;4974745;28;20034;-50
2021/12/29 00:11:21;;;;;;;9.93;6.53;;;;;;;-143.35;100.00;58682.94;4974649;28;20034;-49
2021/12/29 00:13:47;;;;;;;14.68;6.40;;;;;;;-143.35;100.00;58682.94;4974333;28;20039;-49
2021/12/29 00:16:13;;;;;;;10.50;6.53;;;;;;;-143.35;100.00;58682.94;4974533;28;20045;-49
2021/12/29 00:18:38;;;;;;;14.88;6.20;;;;;;;-143.35;100.00;58682.94;4974613;28;20426;-50
2021/12/29 00:21:06;;;;;;;19.90;7.80;;;;;;;-143.35;100.00;58682.94;4976210;28;20417;-50
2021/12/29 00:23:31;;;;;;;18.60;6.45;;;;;;;-143.35;100.00;58682.94;4977968;28;20027;-50
2021/12/29 00:25:56;;;;;;;13.02;7.57;;;;;;;-143.35;100.00;58682.94;4978044;28;20093;-50
2021/12/29 00:28:22;;;;;;;21.02;7.40;;;;;;;-143.35;100.00;58682.94;4977895;28;20359;-50
2021/12/29 00:30:47;;;;;;;14.15;7.35;;;;;;;-143.35;100.00;58682.94;4977706;28;20078;-49
2021/12/29 00:33:13;;;;;;;14.52;7.57;;;;;;;-143.35;100.00;58682.94;4977859;28;20027;-48
2021/12/29 00:35:41;;;;;;;23.08;8.55;;;;;;;-143.35;100.00;58682.94;4977816;28;20027;-49
2021/12/29 00:38:09;;;;;;;19.20;9.18;;;;;;;-143.35;100.00;58682.94;4977662;28;20394;-49
2021/12/29 00:40:35;;;;;;;16.83;8.00;;;;;;;-143.35;100.00;58682.94;4977719;28;20390;-49
2021/12/29 00:43:00;;;;;;;13.10;7.35;;;;;;;-143.35;100.00;58682.94;4977552;28;20029;-50
2021/12/29 00:45:26;;;;;;;14.35;7.32;;;;;;;-143.35;100.00;58682.94;4960456;28;20471;-49
2021/12/29 00:47:53;;;;;;;20.80;8.07;;;;;;;-143.35;100.00;58682.94;4977553;28;20544;-50
2021/12/29 00:50:18;;;;;;;18.40;8.00;;;;;;;-143.35;100.00;58682.94;4977575;28;20027;-52
2021/12/29 00:52:44;;;;;;;20.02;8.00;;;;;;;-143.35;100.00;58682.94;4977365;28;20501;-50
2021/12/29 00:55:10;;;;;;;19.05;7.45;;;;;;;-143.35;100.00;58682.94;4977470;28;20390;-51
2021/12/29 00:57:36;;;;;;;17.58;7.53;;;;;;;-143.35;100.00;58682.94;4978100;28;20030;-49
2021/12/29 01:00:05;;;;;;;17.13;7.57;;;;;;;-143.35;100.00;58682.94;4977597;28;20491;-50
2021/12/29 01:02:30;;;;;;;16.70;7.97;;;;;;;-143.35;100.00;58682.94;4977209;28;20107;-48
2021/12/29 01:04:55;;;;;;;14.02;7.78;;;;;;;-143.35;100.00;58682.94;4977318;28;20042;-48
2021/12/29 01:07:21;;;;;;;14.63;7.18;;;;;;;-143.35;100.00;58682.94;4977301;28;20054;-49
2021/12/29 01:09:47;;;;;;;11.45;7.20;;;;;;;-143.35;100.00;58682.94;4977067;28;20549;-49
2021/12/29 01:12:12;;;;;;;16.25;7.15;;;;;;;-143.35;100.00;58682.94;4977158;28;20022;-49
2021/12/29 01:14:41;;;;;;;19.70;7.38;;;;;;;-143.35;100.00;58682.94;4976976;28;20054;-49
2021/12/29 01:17:07;;;;;;;11.95;6.35;;;;;;;-143.35;100.00;58682.94;4977022;28;20085;-49
2021/12/29 01:19:33;;;;;;;15.48;7.28;;;;;;;-143.35;100.00;58682.94;4976986;28;20102;-49
2021/12/29 01:22:01;;;;;;;11.27;5.90;;;;;;;-143.35;100.00;58682.94;4976735;28;20467;-48
2021/12/29 01:24:28;;;;;;;12.23;7.07;;;;;;;-143.35;100.00;58682.94;4976742;28;20022;-49
2021/12/29 01:26:55;;;;;;;13.52;7.53;;;;;;;-143.35;100.00;58682.94;4976958;28;20086;-48
2021/12/29 01:29:21;;;;;;;15.73;6.60;;;;;;;-143.35;100.00;58682.94;4976845;28;20027;-51
2021/12/29 01:31:47;;;;;;;12.60;5.85;;;;;;;-143.35;100.00;58682.94;4975883;28;20482;-49
2021/12/29 01:34:13;;;;;;;13.63;7.15;;;;;;;-143.35;100.00;58682.94;4976765;28;20023;-49
2021/12/29 01:36:39;;;;;;;8.90;6.10;;;;;;;-143.35;100.00;58682.94;4976727;28;20038;-48
2021/12/29 01:39:08;;;;;;;11.88;6.47;;;;;;;-143.35;100.00;58682.94;4976564;28;20498;-49
2021/12/29 01:41:34;;;;;;;9.82;6.05;;;;;;;-143.35;100.00;58682.94;4976545;28;20363;-49
2021/12/29 01:44:01;;;;;;;13.60;6.75;;;;;;;-143.35;100.00;58682.94;4976545;28;20026;-49
2021/12/29 01:46:27;;;;;;;15.30;5.93;;;;;;;-143.35;100.00;58682.94;4976498;28;20041;-49
2021/12/29 01:48:52;;;;;;;16.38;5.68;;;;;;;-143.35;100.00;58682.94;4976383;28;20101;-48
2021/12/29 01:51:19;;;;;;;10.38;5.90;;;;;;;-143.35;100.00;58682.94;4976437;28;20033;-49
2021/12/29 01:54:01;;;;;;;10.95;5.68;;;;;;;-143.35;100.00;58682.94;4976374;28;20022;-48
2021/12/29 01:56:28;;;;;;;10.52;6.47;;;;;;;-143.35;100.00;58682.94;4976382;28;20034;-49
2021/12/29 01:58:53;;;;;;;11.35;5.78;;;;;;;-143.35;100.00;58682.94;4976211;28;20077;-48
2021/12/29 02:01:19;;;;;;;12.75;6.40;;;;;;;-143.35;100.00;58682.94;4976279;28;20019;-48
2021/12/29 02:03:45;;;;;;;10.05;5.80;;;;;;;-143.35;100.00;58682.94;4976123;28;20030;-49
2021/12/29 02:06:10;;;;;;;13.00;6.15;;;;;;;-143.35;100.00;58682.94;4976161;28;20035;-49
2021/12/29 02:08:36;;;;;;;15.60;6.43;;;;;;;-143.35;100.00;58682.94;4958656;28;20073;-51
2021/12/29 02:11:04;;;;;;;11.10;5.80;;;;;;;-143.35;100.00;58682.94;4975995;28;20371;-49
2021/12/29 02:13:29;;;;;;;12.25;5.57;;;;;;;-143.35;100.00;58682.94;4978126;28;20129;-49
2021/12/29 02:15:54;;;;;;;11.90;5.60;;;;;;;-143.35;100.00;58682.94;4990323;28;20117;-49
2021/12/29 02:18:20;;;;;;;12.80;6.18;;;;;;;-143.35;100.00;58682.94;4995411;28;20026;-49
2021/12/29 02:20:49;;;;;;;10.90;6.65;;;;;;;-143.35;100.00;58682.94;4995283;28;20109;-51
2021/12/29 02:23:20;;;;;;;7.80;5.95;;;;;;;-143.35;100.00;58682.94;4995100;28;20022;-50
2021/12/29 02:25:51;;;;;;;16.15;6.07;;;;;;;-143.35;100.00;58682.94;4995119;28;20038;-49
2021/12/29 02:28:23;;;;;;;11.35;6.25;;;;;;;-143.35;100.00;58682.94;4995244;28;20036;-50
2021/12/29 02:30:50;;;;;;;10.65;5.40;;;;;;;-143.35;100.00;58682.94;4995187;28;20498;-48
2021/12/29 02:33:16;;;;;;;10.65;6.32;;;;;;;-143.35;100.00;58682.94;4995123;28;20056;-49
2021/12/29 02:35:42;;;;;;;16.65;6.13;;;;;;;-143.35;100.00;58682.94;4995009;28;20041;-49
2021/12/29 02:38:27;;;;;;;14.55;6.00;;;;;;;-143.35;100.00;58682.94;4994911;28;20085;-50
2021/12/29 02:40:56;;;;;;;11.07;6.20;;;;;;;-143.35;100.00;58682.94;4994955;28;20080;-48
2021/12/29 02:43:23;;;;;;;10.02;6.05;;;;;;;-143.35;100.00;58682.94;4994746;28;20509;-49
2021/12/29 02:45:58;;;;;;;113.95;18.98;;;;;;;-143.35;100.00;58682.94;4994936;28;20069;-50
2021/12/29 02:48:24;;;;;;;10.98;6.13;;;;;;;-143.35;100.00;58682.94;4994917;28;20482;-49
2021/12/29 02:50:54;;;;;;;9.15;5.68;;;;;;;-143.35;100.00;58682.94;4995325;28;20037;-49
2021/12/29 02:53:19;;;;;;;9.55;5.15;;;;;;;-143.35;100.00;58682.94;4995020;28;20022;-48
2021/12/29 02:55:45;;;;;;;11.32;5.88;;;;;;;-143.35;100.00;58682.94;4994900;28;20022;-49
2021/12/29 02:58:10;;;;;;;12.05;5.07;;;;;;;-143.35;100.00;58682.94;4994752;28;20093;-48
2021/12/29 03:00:36;;;;;;;14.40;6.00;;;;;;;-143.35;100.00;58682.94;4994779;28;20045;-48
2021/12/29 03:03:01;;;;;;;10.95;4.80;;;;;;;-143.35;100.00;58682.94;4994619;28;20477;-47
2021/12/29 03:05:27;;;;;;;16.23;6.03;;;;;;;-143.35;100.00;58682.94;4994569;28;20034;-48
2021/12/29 03:07:54;;;;;;;9.75;5.25;;;;;;;-143.35;100.00;58682.94;4994650;28;20033;-48
2021/12/29 03:10:19;;;;;;;11.35;4.57;;;;;;;-143.35;100.00;58682.94;4994713;28;20057;-48
2021/12/29 03:12:44;;;;;;;10.15;5.00;;;;;;;-143.35;100.00;58682.94;5008240;23;20061;-49
2021/12/29 03:15:10;;;;;;;6.53;4.40;;;;;;;-143.35;100.00;58682.94;5014225;28;20036;-49
2021/12/29 03:17:35;;;;;;;10.15;4.72;;;;;;;-143.35;100.00;58682.94;5014329;28;20151;-49
2021/12/29 03:20:01;;;;;;;8.98;4.50;;;;;;;-143.35;100.00;58682.94;5014166;28;20026;-49
2021/12/29 03:22:26;;;;;;;8.13;4.20;;;;;;;-143.35;100.00;58682.94;5013921;28;20034;-48
2021/12/29 03:24:51;;;;;;;14.43;5.45;;;;;;;-143.35;100.00;58682.94;5014027;28;20052;-48
2021/12/29 03:27:18;;;;;;;12.68;4.47;;;;;;;-143.35;100.00;58682.94;5014046;28;20022;-48
2021/12/29 03:29:44;;;;;;;11.82;4.57;;;;;;;-143.35;100.00;58682.94;5014020;28;20029;-49
2021/12/29 03:32:10;;;;;;;6.80;4.38;;;;;;;-143.35;100.00;58682.94;5014097;28;20496;-48
2021/12/29 03:34:36;;;;;;;9.98;4.85;;;;;;;-143.35;100.00;58682.94;5014039;28;20054;-48
2021/12/29 03:37:02;;;;;;;10.57;5.07;;;;;;;-143.35;100.00;58682.94;5014070;28;20061;-51
2021/12/29 03:39:27;;;;;;;6.80;4.30;;;;;;;-143.35;100.00;58682.94;5014003;28;20526;-48
2021/12/29 03:41:54;;;;;;;8.82;3.70;;;;;;;-143.35;100.00;58682.94;5013962;28;20029;-48
2021/12/29 03:44:19;;;;;;;8.18;5.18;;;;;;;-143.35;100.00;58682.94;5013863;28;20030;-49
2021/12/29 03:46:44;;;;;;;10.73;4.03;;;;;;;-143.35;100.00;58682.94;5013800;28;20101;-51
2021/12/29 03:49:10;;;;;;;7.25;3.60;;;;;;;-143.35;100.00;58682.94;5013878;28;20022;-48
2021/12/29 03:51:36;;;;;;;7.28;3.72;;;;;;;-143.35;100.00;58682.94;5013808;28;20362;-49
2021/12/29 03:54:04;;;;;;;5.80;3.42;;;;;;;-143.35;100.00;58682.94;5013790;28;20021;-48
2021/12/29 03:56:30;;;;;;;7.63;3.42;;;;;;;-143.35;100.00;58682.94;5016384;28;20026;-48
2021/12/29 03:58:55;;;;;;;6.72;3.90;;;;;;;-143.35;100.00;58682.94;5017618;28;20030;-48
2021/12/29 04:01:25;;;;;;;5.93;3.92;;;;;;;-143.35;100.00;58682.94;5017501;28;20488;-49
2021/12/29 04:03:51;;;;;;;8.43;4.10;;;;;;;-143.35;100.00;58682.94;5017381;28;20092;-48
2021/12/29 04:06:18;;;;;;;5.32;3.55;;;;;;;-143.35;100.00;58682.94;5017528;28;20026;-49
2021/12/29 04:08:44;;;;;;;6.20;3.78;;;;;;;-143.35;100.00;58682.94;5017376;28;20048;-49
2021/12/29 04:11:09;;;;;;;7.75;3.35;;;;;;;-143.35;100.00;58682.94;5017280;28;20460;-50
2021/12/29 04:13:36;;;;;;;4.55;3.22;;;;;;;-143.35;100.00;58682.94;5017102;28;20581;-48
2021/12/29 04:16:01;;;;;;;6.85;3.70;;;;;;;-143.35;100.00;58682.94;5017214;28;20033;-50
2021/12/29 04:18:27;;;;;;;5.72;4.10;;;;;;;-143.35;100.00;58682.94;5017212;28;20088;-49
2021/12/29 04:20:57;;;;;;;6.10;3.63;;;;;;;-143.35;100.00;58682.94;5017137;28;20018;-49
2021/12/29 04:23:29;;;;;;;6.68;3.95;;;;;;;-143.35;100.00;58682.94;5017049;28;20042;-51
2021/12/29 04:25:56;;;;;;;7.47;3.45;;;;;;;-143.35;100.00;58682.94;5017062;28;20030;-49
2021/12/29 04:28:25;;;;;;;5.60;3.67;;;;;;;-143.35;100.00;58682.94;5016942;28;20442;-48
2021/12/29 04:30:58;;;;;;;7.32;3.58;;;;;;;-143.35;100.00;58682.94;5016942;28;20034;-49
2021/12/29 04:33:24;;;;;;;9.20;3.30;;;;;;;-143.35;100.00;58682.94;5016856;28;20036;-48
2021/12/29 04:35:50;;;;;;;4.60;3.75;;;;;;;-143.35;100.00;58682.94;5016808;28;20018;-51
2021/12/29 04:38:16;;;;;;;7.47;4.20;;;;;;;-143.35;100.00;58682.94;5016849;28;20032;-48
2021/12/29 04:40:42;;;;;;;6.15;3.70;;;;;;;-143.35;100.00;58682.94;5016725;28;20405;-49
2021/12/29 04:43:07;;;;;;;10.65;4.13;;;;;;;-143.35;100.00;58682.94;5016555;28;20469;-48
2021/12/29 04:45:33;;;;;;;6.00;3.38;;;;;;;-143.35;100.00;58682.94;5016642;28;20032;-51
2021/12/29 04:47:59;;;;;;;4.45;3.15;;;;;;;-143.35;100.00;58682.94;5016627;28;20046;-49
2021/12/29 04:50:27;;;;;;;7.57;4.13;;;;;;;-143.35;100.00;58682.94;5016590;28;20025;-49
2021/12/29 04:52:58;;;;;;;9.32;3.95;;;;;;;-143.35;100.00;58682.94;5016594;28;20026;-48
2021/12/29 04:55:24;;;;;;;6.25;2.83;;;;;;;-143.35;100.00;58682.94;5016476;28;20030;-49
2021/12/29 04:57:50;;;;;;;6.57;3.20;;;;;;;-143.35;100.00;58682.94;5016471;28;20040;-48
2021/12/29 05:00:18;;;;;;;6.25;3.40;;;;;;;-143.35;100.00;58682.94;5016349;28;20029;-51
2021/12/29 05:02:43;;;;;;;7.78;4.05;;;;;;;-143.35;100.00;58682.94;5016286;28;20041;-48
2021/12/29 05:05:22;;;;;;;7.28;3.50;;;;;;;-143.35;100.00;58682.94;5016301;28;20034;-48
2021/12/29 05:10:33;;;;;;;9.57;3.15;;;;;;;-143.35;100.00;58682.94;5016455;28;20040;-51
2021/12/29 05:12:59;;;;;;;7.25;4.25;;;;;;;-143.35;100.00;58682.94;5015923;28;20041;-49
2021/12/29 05:15:24;;;;;;;10.00;3.63;;;;;;;-143.35;100.00;58682.94;5016113;28;20026;-48
2021/12/29 05:17:49;;;;;;;5.10;3.83;;;;;;;-143.35;100.00;58682.94;5016164;28;20024;-49
2021/12/29 05:20:15;;;;;;;9.50;3.28;;;;;;;-143.35;100.00;58682.94;5015963;28;20030;-51
2021/12/29 05:22:41;;;;;;;9.20;3.75;;;;;;;-143.35;100.00;58682.94;5014591;28;20053;-50
2021/12/29 05:25:07;;;;;;;4.47;2.80;;;;;;;-143.35;100.00;58682.94;5015863;28;20439;-48
2021/12/29 05:27:32;;;;;;;6.60;2.55;;;;;;;-143.35;100.00;58682.94;5015826;28;20064;-48
2021/12/29 05:30:02;;;;;;;4.22;2.58;;;;;;;-143.35;100.00;58682.94;5016654;28;20026;-48
2021/12/29 05:32:30;;;;;;;8.18;2.78;;;;;;;-143.35;100.00;58682.94;5016017;28;20080;-48
2021/12/29 05:34:55;;;;;;;5.20;2.95;;;;;;;-143.35;100.00;58682.94;5015850;28;20028;-48
2021/12/29 05:37:20;;;;;;;7.15;3.38;;;;;;;-143.35;100.00;58682.94;5015771;28;20100;-48
2021/12/29 05:39:46;;;;;;;7.30;3.05;;;;;;;-143.35;100.00;58682.94;5015634;28;20116;-48
2021/12/29 05:42:14;;;;;;;4.40;2.20;;;;;;;-143.35;100.00;58682.94;5015547;28;20021;-48
2021/12/29 05:44:39;;;;;;;11.30;3.65;;;;;;;-143.35;100.00;58682.94;5015591;28;20046;-48
2021/12/29 05:47:05;;;;;;;4.28;2.42;;;;;;;-143.35;100.00;58682.94;5015596;28;20091;-48
2021/12/29 05:49:30;;;;;;;7.22;1.92;;;;;;;-143.35;100.00;58682.94;5015449;28;20092;-49
2021/12/29 05:51:56;;;;;;;3.63;2.20;;;;;;;-143.35;100.00;58682.94;5015334;28;20080;-48
2021/12/29 05:54:21;;;;;;;5.30;1.90;;;;;;;-143.35;100.00;58682.94;5015392;28;20017;-49
2021/12/29 05:56:46;;;;;;;6.65;2.17;;;;;;;-143.35;100.00;58682.94;5015430;28;20037;-49
2021/12/29 05:59:12;;;;;;;5.03;2.33;;;;;;;-143.35;100.00;58682.94;5015258;28;20034;-48
2021/12/29 06:01:39;;;;;;;6.88;1.98;;;;;;;-143.35;100.00;58682.94;5015238;28;20026;-49
2021/12/29 06:04:04;;;;;;;6.20;2.08;;;;;;;-143.35;100.00;58682.94;5015221;28;20032;-48
2021/12/29 06:06:30;;;;;;;6.53;1.88;;;;;;;-143.35;100.00;58682.94;5015104;28;20109;-48
2021/12/29 06:08:56;;;;;;;11.77;2.42;;;;;;;-143.35;100.00;58682.94;5015202;28;20109;-50
2021/12/29 06:11:22;;;;;;;4.57;1.88;;;;;;;-143.35;100.00;58682.94;5015167;28;20030;-51
2021/12/29 06:13:47;;;;;;;8.45;2.05;;;;;;;-143.35;100.00;58682.94;5014824;28;20053;-48
2021/12/29 06:16:12;;;;;;;3.78;2.10;;;;;;;-143.35;100.00;58682.94;5014979;28;20038;-48
2021/12/29 06:18:38;;;;;;;6.20;1.92;;;;;;;-143.35;100.00;58682.94;5014775;28;20484;-49
2021/12/29 06:21:03;;;;;;;21.45;2.88;;;;;;;-143.35;100.00;58682.94;5014905;28;20022;-48
2021/12/29 06:23:28;;;;;;;4.20;1.67;;;;;;;-143.35;100.00;58682.94;5014696;28;20438;-49
2021/12/29 06:25:54;;;;;;;10.73;2.25;;;;;;;-143.35;100.00;58682.94;5014819;28;20033;-49
2021/12/29 06:28:19;;;;;;;13.65;2.40;;;;;;;-143.35;100.00;58682.94;5015042;28;20101;-51
2021/12/29 06:30:45;;;;;;;5.45;1.65;;;;;;;-143.35;100.00;58682.94;5014732;28;20109;-50
2021/12/29 06:33:10;;;;;;;4.75;1.60;;;;;;;-143.35;100.00;58682.94;5014739;28;20101;-48
2021/12/29 06:35:35;;;;;;;5.20;1.42;;;;;;;-143.35;100.00;58682.94;5014644;28;20083;-51
2021/12/29 06:38:01;;;;;;;6.60;1.90;;;;;;;-143.35;100.00;58682.94;5014624;28;20022;-50
2021/12/29 06:40:26;;;;;;;5.50;2.15;;;;;;;-143.35;100.00;58682.94;5014605;28;20022;-48
2021/12/29 06:42:52;;;;;;;5.57;1.67;;;;;;;-143.35;100.00;58682.94;5014363;28;20076;-49
2021/12/29 06:45:17;;;;;;;6.90;2.03;;;;;;;-143.35;100.00;58682.94;5014673;28;20433;-51
2021/12/29 06:47:42;;;;;;;10.70;1.83;;;;;;;-143.35;100.00;58682.94;5014442;28;20113;-50
2021/12/29 06:50:08;;;;;;;6.38;2.05;;;;;;;-143.35;100.00;58682.94;5014552;28;20048;-50
2021/12/29 06:52:34;;;;;;;8.10;1.95;;;;;;;-143.35;100.00;58682.94;5014415;28;20022;-51
2021/12/29 06:55:00;;;;;;;3.83;1.75;;;;;;;-143.35;100.00;58682.94;5014421;28;20084;-48
2021/12/29 06:57:26;;;;;;;3.00;1.15;;;;;;;-143.35;100.00;58682.94;5014521;28;20172;-50
2021/12/29 06:59:51;;;;;;;7.43;1.77;;;;;;;-143.35;100.00;58682.94;5014360;28;20073;-48
2021/12/29 07:02:17;;;;;;;6.55;1.65;;;;;;;-143.35;100.00;58682.94;5014276;28;20022;-51
2021/12/29 07:04:43;;;;;;;3.95;1.27;;;;;;;-143.35;100.00;58682.94;5014269;28;20026;-50
2021/12/29 07:07:09;;;;;;;8.13;1.67;;;;;;;-143.35;100.00;58682.94;5014182;28;20022;-49
2021/12/29 07:09:34;;;;;;;3.10;1.52;;;;;;;-143.35;100.00;58682.94;5014248;28;20041;-50
2021/12/29 07:12:00;;;;;;;9.63;2.40;;;;;;;-143.35;100.00;58682.94;5014107;28;20080;-50
2021/12/29 07:14:25;;;;;;;4.10;1.38;;;;;;;-143.35;100.00;58682.94;5014353;28;20038;-51
2021/12/29 07:16:51;;;;;;;2.30;1.35;;;;;;;-143.35;100.00;58682.94;5014234;28;20069;-48
2021/12/29 07:19:18;;;;;;;5.40;1.50;;;;;;;-143.35;100.00;58682.94;5014229;28;20022;-51
2021/12/29 07:21:43;;;;;;;6.03;1.60;;;;;;;-143.35;100.00;58682.94;5014860;28;20050;-48
2021/12/29 07:24:10;;;;;;;4.30;1.45;;;;;;;-143.35;100.00;58682.94;5014148;28;20068;-48
2021/12/29 07:26:35;;;;;;;3.20;1.42;;;;;;;-143.35;100.00;58682.94;5014031;28;20446;-48
2021/12/29 07:29:01;;;;;;;3.92;2.00;;;;;;;-143.35;100.00;58682.94;5014089;28;20058;-48
2021/12/29 07:31:27;;;;;;;4.82;1.67;;;;;;;-143.35;100.00;58682.94;5016761;28;20030;-50
2021/12/29 07:33:53;;;;;;;4.57;1.83;;;;;;;-143.35;100.00;58682.94;5018051;28;20477;-48
2021/12/29 07:36:19;;;;;;;7.07;2.88;;;;;;;-143.35;100.00;58682.94;5018112;28;20030;-49
2021/12/29 07:38:44;;;;;;;3.95;2.22;;;;;;;-143.35;100.00;58682.94;5017959;28;20025;-48
2021/12/29 07:41:11;;;;;;;5.60;2.00;;;;;;;-143.35;100.00;58682.94;5017955;28;20054;-49
2021/12/29 07:43:37;;;;;;;5.97;1.80;;;;;;;-143.35;100.00;58682.94;5017675;28;20490;-48
2021/12/29 07:46:03;;;;;;;7.72;1.55;;;;;;;-143.35;100.00;58682.94;5017803;28;20034;-48
2021/12/29 07:48:30;;;;;;;2.50;1.73;;;;;;;-143.35;100.00;58682.94;5017635;28;20040;-48
2021/12/29 07:50:56;;;;;;;5.53;2.08;;;;;;;-143.35;100.00;58682.94;5017633;28;20099;-48
2021/12/29 07:53:22;;;;;;;14.10;2.53;;;;;;;-143.35;100.00;58682.94;5017710;28;20026;-48
2021/12/29 07:55:48;;;;;;;4.70;2.53;;;;;;;-143.35;100.00;58682.94;5016269;28;20176;-48
2021/12/29 07:58:14;;;;;;;8.80;2.25;;;;;;;-143.35;100.00;58682.94;5017567;28;20080;-51
2021/12/29 08:00:39;;;;;;;5.05;2.58;;;;;;;-143.35;100.00;58682.94;5017489;28;20032;-51
2021/12/29 08:03:05;;;;;;;9.20;3.35;;;;;;;-143.35;100.00;58682.94;5017394;28;20452;-51
2021/12/29 08:05:30;;;;;;;3.90;2.83;;;;;;;-143.35;100.00;58682.94;5016260;28;20030;-50
2021/12/29 08:07:56;;;;;;;7.15;3.50;;;;;;;-143.35;100.00;58682.94;5017358;28;20057;-48
2021/12/29 08:10:21;;;;;;;7.93;2.97;;;;;;;-143.35;100.00;58682.94;5017418;28;20018;-51
2021/12/29 08:12:47;;;;;;;5.43;3.17;;;;;;;-143.35;100.00;58682.94;5017037;28;20412;-51
2021/12/29 08:15:12;;;;;;;4.18;3.13;;;;;;;-143.35;100.00;58682.94;5017283;28;20449;-51
2021/12/29 08:17:39;;;;;;;6.15;3.85;;;;;;;-143.35;100.00;58682.94;5017363;28;20469;-48
2021/12/29 08:20:07;;;;;;;6.40;4.18;;;;;;;-143.35;100.00;58682.94;5017326;28;20026;-48
2021/12/29 08:22:32;;;;;;;5.05;3.83;;;;;;;-143.35;100.00;58682.94;5017120;28;20389;-48
2021/12/29 08:24:58;;;;;;;14.98;4.85;;;;;;;-143.35;100.00;58682.94;5017019;28;20025;-49
2021/12/29 08:27:24;;;;;;;8.25;4.10;;;;;;;-143.35;100.00;58682.94;5017114;28;20104;-49
2021/12/29 08:29:49;;;;;;;7.13;4.25;;;;;;;-143.35;100.00;58682.94;5016992;28;20113;-48
2021/12/29 08:32:14;;;;;;;9.65;4.70;;;;;;;-143.35;100.00;58682.94;5017004;28;20385;-48
2021/12/29 08:34:40;;;;;;;7.05;4.70;;;;;;;-143.35;100.00;58682.94;5016855;28;20030;-49
2021/12/29 08:37:06;;;;;;;9.88;4.90;;;;;;;-143.35;100.00;58682.94;5016948;28;20105;-48
2021/12/29 08:39:31;;;;;;;7.60;4.78;;;;;;;-143.35;100.00;58682.94;5016978;28;20026;-48
2021/12/29 08:41:56;;;;;;;8.27;5.85;;;;;;;-143.35;100.00;58682.94;5016643;28;20033;-48
2021/12/29 08:44:22;;;;;;;9.02;6.80;;;;;;;-143.35;100.00;58682.94;5016608;28;20036;-49
2021/12/29 08:46:47;;;;;;;8.48;5.82;;;;;;;-143.35;100.00;58682.94;5015548;28;20044;-51
2021/12/29 08:49:14;;;;;;;8.23;5.88;;;;;;;-143.35;100.00;58682.94;5016644;28;20100;-51
2021/12/29 08:51:40;;;;;;;7.70;5.88;;;;;;;-143.35;100.00;58682.94;5016674;28;20025;-48
2021/12/29 08:54:05;;;;;;;7.38;6.57;;;;;;;-143.35;100.00;58682.94;5015380;28;20110;-48
2021/12/29 08:56:31;;;;;;;8.88;5.63;;;;;;;-143.35;100.00;58682.94;5016567;28;20101;-49
2021/12/29 08:58:56;;;;;;;7.05;5.15;;;;;;;-143.35;100.00;58682.94;5015145;28;20026;-50
2021/12/29 09:01:23;;;;;;;8.32;4.70;;;;;;;-143.35;100.00;58682.94;5016382;28;20022;-48
2021/12/29 09:03:49;;;;;;;9.85;5.30;;;;;;;-143.35;100.00;58682.94;5016317;28;20112;-48
2021/12/29 09:06:15;;;;;;;7.47;4.90;;;;;;;-143.35;100.00;58682.94;5016324;28;20072;-48
2021/12/29 09:08:41;;;;;;;10.45;5.38;;;;;;;-143.35;100.00;58682.94;5016278;28;20038;-49
2021/12/29 09:11:08;;;;;;;8.27;5.38;;;;;;;-143.35;100.00;58682.94;5014942;28;20500;-51
2021/12/29 09:13:34;;;;;;;8.52;6.20;;;;;;;-143.35;100.00;58682.94;5014768;28;20034;-50
2021/12/29 09:15:59;;;;;;;7.53;4.75;;;;;;;-143.35;100.00;58682.94;5016191;28;20049;-50
2021/12/29 09:18:28;;;;;;;9.18;6.00;;;;;;;-143.35;100.00;58682.94;5015969;28;20384;-50
2021/12/29 09:20:56;;;;;;;7.68;5.18;;;;;;;-143.35;100.00;58682.94;5016078;28;20025;-48
2021/12/29 09:23:21;;;;;;;6.25;4.82;;;;;;;-143.35;100.00;58682.94;5015995;28;20037;-49
2021/12/29 09:25:48;;;;;;;8.13;5.28;;;;;;;-143.35;100.00;58682.94;5015965;28;20477;-50
2021/12/29 09:28:15;;;;;;;6.13;4.45;;;;;;;-143.35;100.00;58682.94;5015807;28;20083;-51
2021/12/29 09:30:44;;;;;;;17.50;4.60;;;;;;;-143.35;100.00;58682.94;5015998;28;20049;-49
2021/12/29 09:33:10;;;;;;;10.07;4.32;;;;;;;-143.35;100.00;58682.94;5015902;28;20030;-50
2021/12/29 09:35:37;;;;;;;8.35;4.65;;;;;;;-143.35;100.00;58682.94;5015756;28;20106;-49
2021/12/29 09:38:05;;;;;;;6.90;3.70;;;;;;;-143.35;100.00;58682.94;5015719;28;20022;-49
2021/12/29 09:40:33;;;;;;;9.52;4.25;;;;;;;-143.35;100.00;58682.94;5015843;28;20034;-49
2021/12/29 09:42:59;;;;;;;7.40;3.70;;;;;;;-143.35;100.00;58682.94;5015654;28;20458;-49
2021/12/29 09:45:25;;;;;;;8.20;3.20;;;;;;;-143.35;100.00;58682.94;5015568;28;20026;-51
2021/12/29 09:47:51;;;;;;;9.68;3.78;;;;;;;-143.35;100.00;58682.94;5015564;28;20025;-49
2021/12/29 09:50:19;;;;;;;5.70;3.00;;;;;;;-143.35;100.00;58682.94;5015529;28;20030;-51
2021/12/29 09:52:46;;;;;;;5.60;3.60;;;;;;;-143.35;100.00;58682.94;5015064;28;20066;-49
2021/12/29 09:55:14;;;;;;;7.10;3.13;;;;;;;-143.35;100.00;58682.94;5015518;28;20026;-49
2021/12/29 09:57:44;;;;;;;7.07;4.13;;;;;;;-143.35;100.00;58682.94;5015576;28;20021;-52
2021/12/29 10:00:19;;;;;;;6.80;3.17;;;;;;;-143.35;100.00;58682.94;5014737;28;20389;-49
2021/12/29 10:02:45;;;;;;;8.25;2.85;;;;;;;-143.35;100.00;58682.94;5015243;28;20036;-49
2021/12/29 10:05:11;;;;;;;5.90;3.28;;;;;;;-143.35;100.00;58682.94;5015205;28;20093;-49
2021/12/29 10:07:36;;;;;;;6.80;2.53;;;;;;;-143.35;100.00;58682.94;5015251;28;20096;-49
2021/12/29 10:10:14;;;;;;;6.10;3.88;;;;;;;-143.35;100.00;58682.94;5015216;28;20036;-49
2021/12/29 10:12:44;;;;;;;6.25;4.03;;;;;;;-143.35;100.00;58682.94;5015125;28;20396;-48
2021/12/29 10:15:10;;;;;;;7.88;2.72;;;;;;;-143.35;100.00;58682.94;5015058;28;20088;-48
2021/12/29 10:17:35;;;;;;;5.03;3.35;;;;;;;-143.35;100.00;58682.94;5014877;28;20029;-49
2021/12/29 10:20:12;;;;;;;18.30;3.83;;;;;;;-143.35;100.00;58682.94;5014879;28;20409;-49
2021/12/29 10:22:39;;;;;;;8.98;3.70;;;;;;;-143.35;100.00;58682.94;5014957;28;20029;-49
2021/12/29 10:25:16;;;;;;;5.65;3.33;;;;;;;-143.35;100.00;58682.94;5014837;28;20076;-51
2021/12/29 10:27:42;;;;;;;8.57;3.28;;;;;;;-143.35;100.00;58682.94;5014842;28;20053;-51
2021/12/29 10:30:30;;;;;;;6.00;3.67;;;;;;;-143.35;100.00;58682.94;5014760;28;20433;-47
2021/12/29 10:32:56;;;;;;;9.95;4.93;;;;;;;-143.35;100.00;58682.94;5014824;28;20029;-50
2021/12/29 10:35:29;;;;;;;6.25;3.10;;;;;;;-143.35;100.00;58682.94;5014742;28;20057;-51
2021/12/29 10:38:10;;;;;;;9.43;3.35;;;;;;;-143.35;100.00;58682.94;5014715;28;20386;-47
2021/12/29 10:40:35;;;;;;;;;;;;;;;-143.35;100.00;58682.94;5015041;28;20061;-50
2021/12/29 10:43:01;;;;;;;7.43;3.33;;;;;;;-143.35;100.00;58682.94;5014520;28;19963;-49
2021/12/29 10:45:36;;;;;;;6.15;2.95;;;;;;;-143.35;100.00;58682.94;5014570;28;20061;-49
2021/12/29 10:48:15;;;;;;;6.57;3.15;;;;;;;-143.35;100.00;58682.94;5014626;28;20386;-49
2021/12/29 10:50:40;;;;;;;8.65;3.10;;;;;;;-143.35;100.00;58682.94;5014621;28;20041;-52
2021/12/29 10:53:07;;;;;;;10.95;3.20;;;;;;;-143.35;100.00;58682.94;5014505;28;20018;-47
2021/12/29 10:55:35;;;;;;;19.75;4.15;;;;;;;-143.35;100.00;58682.94;5014383;28;20022;-49
2021/12/29 10:58:01;;;;;;;11.43;3.92;;;;;;;-143.35;100.00;58682.94;5014347;28;20034;-50
2021/12/29 11:00:27;;;;;;;11.25;3.88;;;;;;;-143.35;100.00;58682.94;5014210;28;20040;-49
2021/12/29 11:02:52;;;;;;;10.27;4.10;;;;;;;-143.35;100.00;58682.94;5014521;28;20088;-48
2021/12/29 11:05:18;;;;;;;11.23;4.72;;;;;;;-143.35;100.00;58682.94;5014312;28;20026;-50
2021/12/29 11:07:43;;;;;;;11.50;4.90;;;;;;;-143.35;100.00;58682.94;5014157;28;20030;-50